Balla — 9HA4535 — position and weather

sailwx.info

Track history (hours):
 
Tides and Currents Weather Stations Pressure Air Temp Water Temp Dewpoint Dewpoint Depression Visibility Wind Speed Wind Dir Waves Ship Positions

Balla

Last reported at 2018-Feb-20 22:24 UTC. Time now 2018-Feb-21 01:33 UTC.
Position N 49°07' W 004°46'.

Length 250 m; draft 11.3 m.

Type: Tanker. MMSI: 248152000.

Date/timePositionNaut miles runAvg speedWind from/ knotsBaromVisibWave heightAir tempDewpointWater temp
2018-Feb-20 22:24N 49°07' W 004°46'910.3
2018-Feb-20 21:30N 49°03' W 004°58'610.9
2018-Feb-20 20:59N 48°60' W 005°06'511.2
2018-Feb-20 20:29N 48°57' W 005°13'711.5
2018-Feb-20 19:54N 48°53' W 005°22'611.7
2018-Feb-20 19:24N 48°50' W 005°29'511.9
2018-Feb-20 18:58N 48°47' W 005°36'611.6
2018-Feb-20 18:29N 48°43' W 005°40'711.9
2018-Feb-20 17:52N 48°37' W 005°46'2612.5
2018-Feb-20 15:48N 48°15' W 006°07'5410.9
2018-Feb-20 10:49N 47°29' W 006°50'53511.3
2018-Feb-18 11:32N 39°21' W 011°51'210.8
2018-Feb-18 11:22N 39°19' W 011°52'411.1
2018-Feb-18 10:58N 39°15' W 011°53'  
2018-Feb-16 04:53N 29°06' W 015°04'512.0
2018-Feb-16 04:30N 29°02' W 015°05'612.4
2018-Feb-16 04:00N 28°55' W 015°07'712.7
2018-Feb-16 03:28N 28°49' W 015°09'612.3
2018-Feb-16 03:00N 28°43' W 015°10'612.4
2018-Feb-16 02:30N 28°37' W 015°12'612.7
2018-Feb-16 02:00N 28°31' W 015°14'612.6
2018-Feb-16 01:30N 28°25' W 015°16'612.5
2018-Feb-16 01:00N 28°19' W 015°18'612.4
2018-Feb-16 00:30N 28°13' W 015°19'611.5
2018-Feb-16 00:00N 28°08' W 015°21'1 2.6
2018-Feb-15 23:30N 28°06' W 015°20'2 3.5
2018-Feb-15 22:59N 28°05' W 015°18'4 8.0
2018-Feb-15 22:31N 28°02' W 015°15'5 9.9
2018-Feb-15 22:01N 27°58' W 015°15'611.1
2018-Feb-15 21:31N 27°52' W 015°16'510.9
2018-Feb-15 21:01N 27°47' W 015°16'510.6
2018-Feb-15 20:31N 27°41' W 015°17'11212.1
2018-Feb-15 11:12N 25°56' W 015°60'314.9
2018-Feb-15 11:00N 25°53' W 016°01'1314.7
2018-Feb-15 10:05N 25°40' W 016°06'314.6
2018-Feb-15 09:53N 25°38' W 016°07'714.3
2018-Feb-15 09:25N 25°31' W 016°10'6212.2
2018-Feb-15 04:21N 24°33' W 016°33'411.5
2018-Feb-15 03:58N 24°29' W 016°35'  
Track history (hours):
 
Tides and Currents Weather Stations Pressure Air Temp Water Temp Dewpoint Dewpoint Depression Visibility Wind Speed Wind Dir Waves Ship Positions

Balla

Last reported at 2018-Feb-20 22:24 UTC. Time now 2018-Feb-21 01:33 UTC.
Position N 49°07' W 004°46'.

Length 250 m; draft 11.3 m.

Type: Tanker. MMSI: 248152000.

Date/timePositionNaut miles runAvg speedWind from/ knotsBaromVisibWave heightAir tempDewpointWater temp
2018-Feb-20 22:24N 49°07' W 004°46'910.3
2018-Feb-20 21:30N 49°03' W 004°58'610.9
2018-Feb-20 20:59N 48°60' W 005°06'511.2
2018-Feb-20 20:29N 48°57' W 005°13'711.5
2018-Feb-20 19:54N 48°53' W 005°22'611.7
2018-Feb-20 19:24N 48°50' W 005°29'511.9
2018-Feb-20 18:58N 48°47' W 005°36'611.6
2018-Feb-20 18:29N 48°43' W 005°40'711.9
2018-Feb-20 17:52N 48°37' W 005°46'2612.5
2018-Feb-20 15:48N 48°15' W 006°07'5410.9
2018-Feb-20 10:49N 47°29' W 006°50'53511.3
2018-Feb-18 11:32N 39°21' W 011°51'210.8
2018-Feb-18 11:22N 39°19' W 011°52'411.1
2018-Feb-18 10:58N 39°15' W 011°53'  
2018-Feb-16 04:53N 29°06' W 015°04'512.0
2018-Feb-16 04:30N 29°02' W 015°05'612.4
2018-Feb-16 04:00N 28°55' W 015°07'712.7
2018-Feb-16 03:28N 28°49' W 015°09'612.3
2018-Feb-16 03:00N 28°43' W 015°10'612.4
2018-Feb-16 02:30N 28°37' W 015°12'612.7
2018-Feb-16 02:00N 28°31' W 015°14'612.6
2018-Feb-16 01:30N 28°25' W 015°16'612.5
2018-Feb-16 01:00N 28°19' W 015°18'612.4
2018-Feb-16 00:30N 28°13' W 015°19'611.5
2018-Feb-16 00:00N 28°08' W 015°21'1 2.6
2018-Feb-15 23:30N 28°06' W 015°20'2 3.5
2018-Feb-15 22:59N 28°05' W 015°18'4 8.0
2018-Feb-15 22:31N 28°02' W 015°15'5 9.9
2018-Feb-15 22:01N 27°58' W 015°15'611.1
2018-Feb-15 21:31N 27°52' W 015°16'510.9
2018-Feb-15 21:01N 27°47' W 015°16'510.6
2018-Feb-15 20:31N 27°41' W 015°17'11212.1
2018-Feb-15 11:12N 25°56' W 015°60'314.9
2018-Feb-15 11:00N 25°53' W 016°01'1314.7
2018-Feb-15 10:05N 25°40' W 016°06'314.6
2018-Feb-15 09:53N 25°38' W 016°07'714.3
2018-Feb-15 09:25N 25°31' W 016°10'6212.2
2018-Feb-15 04:21N 24°33' W 016°33'411.5
2018-Feb-15 03:58N 24°29' W 016°35'  

Dump ship's entire track history